Time;durP1;ratioP1;P1;durP2;ratioP2;P2;SDS_P1;SDS_P2;PMS_P1;PMS_P2;Temp;Humidity;BMP_temperature;BMP_pressure;BME280_temperature;BME280_humidity;BME280_pressure;Samples;Min_cycle;Max_cycle;Signal;HPM_P1;HPM_P2
2021/11/08 00:01:19;;;;;;;10.85;3.03;;;18.30;66.30;;;;;;5029723;28;20521;-83
2021/11/08 00:03:47;;;;;;;6.70;2.78;;;18.30;66.30;;;;;;5029840;28;20038;-83
2021/11/08 00:06:16;;;;;;;7.18;2.63;;;18.30;66.30;;;;;;5030004;28;20485;-83
2021/11/08 00:08:45;;;;;;;9.45;2.75;;;18.30;66.20;;;;;;5029453;28;20025;-83
2021/11/08 00:11:11;;;;;;;10.32;3.17;;;18.30;66.30;;;;;;5032147;28;20485;-83
2021/11/08 00:13:37;;;;;;;7.43;2.83;;;18.20;66.30;;;;;;5029419;28;20087;-83
2021/11/08 00:21:18;;;;;;;7.30;2.95;;;18.20;66.20;;;;;;5029067;28;20115;-83
2021/11/08 00:23:43;;;;;;;8.70;3.33;;;18.10;66.20;;;;;;5029315;28;20018;-82
2021/11/08 00:26:09;;;;;;;6.95;2.53;;;18.10;66.20;;;;;;5029461;28;20086;-83
2021/11/08 00:28:35;;;;;;;8.60;3.40;;;18.10;66.20;;;;;;5029414;28;20040;-83
2021/11/08 00:31:00;;;;;;;6.85;2.83;;;18.10;66.20;;;;;;5029561;28;20382;-83
2021/11/08 00:33:26;;;;;;;6.88;2.70;;;18.10;66.30;;;;;;5028287;28;20459;-83
2021/11/08 00:35:55;;;;;;;8.63;2.90;;;18.10;66.30;;;;;;5029563;28;20511;-83
2021/11/08 00:38:22;;;;;;;7.32;2.72;;;18.10;66.20;;;;;;5029158;28;20029;-83
2021/11/08 00:40:48;;;;;;;6.00;3.15;;;18.00;66.20;;;;;;5029183;28;20018;-83
2021/11/08 00:43:14;;;;;;;8.13;2.83;;;18.00;66.20;;;;;;5046250;28;20036;-83
2021/11/08 00:45:40;;;;;;;7.97;3.20;;;18.10;66.20;;;;;;5048902;28;20033;-83
2021/11/08 00:48:07;;;;;;;5.70;2.65;;;18.00;66.20;;;;;;5049255;28;20021;-83
2021/11/08 00:50:34;;;;;;;7.63;2.70;;;18.00;66.20;;;;;;5048613;28;20029;-83
2021/11/08 00:53:01;;;;;;;6.70;2.38;;;18.00;66.20;;;;;;5049144;28;20473;-83
2021/11/08 00:55:29;;;;;;;8.75;2.90;;;18.00;66.20;;;;;;5047767;28;20109;-83
2021/11/08 00:57:57;;;;;;;6.90;2.22;;;18.00;66.20;;;;;;5049374;28;20041;-83
2021/11/08 01:00:29;;;;;;;5.70;2.28;;;18.00;66.20;;;;;;5049222;28;20021;-83
2021/11/08 01:02:55;;;;;;;6.53;2.53;;;18.00;66.20;;;;;;5049377;28;20017;-83
2021/11/08 01:05:21;;;;;;;10.02;3.35;;;17.90;66.10;;;;;;5047597;28;20017;-83
2021/11/08 01:07:47;;;;;;;8.23;3.17;;;17.90;66.20;;;;;;5048699;28;20031;-83
2021/11/08 01:10:17;;;;;;;7.00;2.75;;;17.90;66.20;;;;;;5048711;28;20033;-83
2021/11/08 01:12:43;;;;;;;7.43;3.08;;;17.90;66.20;;;;;;5048351;28;20029;-83
2021/11/08 01:15:10;;;;;;;9.13;2.88;;;17.90;66.20;;;;;;5048644;28;20096;-83
2021/11/08 01:17:36;;;;;;;7.28;2.83;;;17.90;66.20;;;;;;5048463;28;20024;-83
2021/11/08 01:20:03;;;;;;;7.32;2.58;;;17.90;66.20;;;;;;5048505;28;20056;-83
2021/11/08 01:22:30;;;;;;;7.78;2.92;;;17.80;66.10;;;;;;5048321;28;20048;-83
2021/11/08 01:24:56;;;;;;;7.20;3.03;;;17.80;66.20;;;;;;5049263;28;20029;-83
2021/11/08 01:27:38;;;;;;;8.27;2.60;;;17.80;66.20;;;;;;5048535;28;20013;-83
2021/11/08 01:30:11;;;;;;;7.30;2.67;;;17.80;66.20;;;;;;5048587;28;20021;-83
2021/11/08 01:32:37;;;;;;;5.63;2.38;;;17.80;66.20;;;;;;5047630;28;20028;-84
2021/11/08 01:35:03;;;;;;;7.22;2.67;;;17.80;66.20;;;;;;5047610;28;20025;-83
2021/11/08 01:37:29;;;;;;;8.70;3.00;;;17.80;66.20;;;;;;5048363;28;20035;-83
2021/11/08 01:39:56;;;;;;;8.68;2.67;;;17.70;66.20;;;;;;5048645;28;20060;-83
2021/11/08 01:42:22;;;;;;;8.27;2.65;;;17.80;66.20;;;;;;5038237;28;20385;-83
2021/11/08 01:44:48;;;;;;;5.93;2.20;;;17.80;66.20;;;;;;5028114;28;20029;-83
2021/11/08 01:47:14;;;;;;;7.25;2.50;;;17.80;66.30;;;;;;5028076;28;20026;-83
2021/11/08 01:49:41;;;;;;;7.38;2.55;;;17.70;66.20;;;;;;5027915;28;20548;-83
2021/11/08 01:52:10;;;;;;;8.48;2.60;;;17.70;66.20;;;;;;5028201;28;20045;-82
2021/11/08 01:54:38;;;;;;;8.00;2.40;;;17.70;66.20;;;;;;5028104;28;20056;-83
2021/11/08 01:57:04;;;;;;;8.75;2.65;;;17.70;66.20;;;;;;5026803;28;20117;-83
2021/11/08 01:59:31;;;;;;;6.72;2.42;;;17.70;66.20;;;;;;5026516;28;20404;-83
2021/11/08 02:01:58;;;;;;;5.43;2.60;;;17.70;66.20;;;;;;5027993;28;20372;-83
2021/11/08 02:04:24;;;;;;;6.60;2.80;;;17.60;66.20;;;;;;5028546;28;20029;-83
2021/11/08 02:06:51;;;;;;;6.68;2.13;;;17.60;66.20;;;;;;5026820;28;20078;-83
2021/11/08 02:09:16;;;;;;;7.72;2.40;;;17.60;66.20;;;;;;5026772;28;20040;-83
2021/11/08 02:11:42;;;;;;;8.25;2.75;;;17.60;66.20;;;;;;5027889;28;20109;-83
2021/11/08 02:14:08;;;;;;;5.05;2.30;;;17.60;66.20;;;;;;5027889;28;20046;-83
2021/11/08 02:16:35;;;;;;;7.43;3.08;;;17.60;66.20;;;;;;5026301;28;20489;-83
2021/11/08 02:19:02;;;;;;;10.88;3.63;;;17.60;66.20;;;;;;5026397;28;20046;-82
2021/11/08 02:21:29;;;;;;;7.72;2.67;;;17.60;66.20;;;;;;5027913;28;20030;-83
2021/11/08 02:23:56;;;;;;;8.77;2.85;;;17.60;66.20;;;;;;5028172;28;20033;-83
2021/11/08 02:26:22;;;;;;;7.97;2.58;;;17.60;66.30;;;;;;5028213;28;20033;-83
2021/11/08 02:28:50;;;;;;;6.90;2.60;;;17.50;66.20;;;;;;5027534;28;20033;-82
2021/11/08 02:31:19;;;;;;;9.57;2.83;;;17.60;66.30;;;;;;5027972;28;20028;-83
2021/11/08 02:33:46;;;;;;;8.35;2.38;;;17.60;66.20;;;;;;5027604;28;20037;-83
2021/11/08 02:36:13;;;;;;;6.45;2.60;;;17.60;66.20;;;;;;5026439;28;20022;-82
2021/11/08 02:38:43;;;;;;;7.25;2.40;;;17.60;66.00;;;;;;5027462;28;20025;-82
2021/11/08 02:41:09;;;;;;;6.82;2.65;;;17.60;66.00;;;;;;5027816;28;20485;-83
2021/11/08 02:43:36;;;;;;;6.32;2.75;;;17.60;65.90;;;;;;5047250;28;20112;-83
2021/11/08 02:48:35;;;;;;;6.72;2.63;;;17.60;65.90;;;;;;5050800;28;20112;-82
2021/11/08 02:51:10;;;;;;;9.02;2.58;;;17.60;65.90;;;;;;5050884;28;20029;-82
2021/11/08 02:53:38;;;;;;;6.50;2.47;;;17.60;65.90;;;;;;5050773;28;20045;-82
2021/11/08 02:56:06;;;;;;;7.00;3.15;;;17.60;65.80;;;;;;5050724;28;20503;-82
2021/11/08 02:58:32;;;;;;;7.18;2.30;;;17.60;65.80;;;;;;5050492;28;20384;-83
2021/11/08 03:00:58;;;;;;;5.35;2.40;;;17.60;65.80;;;;;;5050705;28;20503;-83
2021/11/08 03:03:32;;;;;;;8.60;2.70;;;17.60;65.80;;;;;;5051123;28;20100;-82
2021/11/08 03:06:03;;;;;;;7.07;2.75;;;17.60;65.80;;;;;;5050791;28;20430;-83
2021/11/08 03:08:29;;;;;;;6.35;2.58;;;17.60;65.80;;;;;;5049141;28;20021;-83
2021/11/08 03:10:57;;;;;;;5.60;2.63;;;17.60;65.80;;;;;;5051012;28;20025;-82
2021/11/08 03:13:23;;;;;;;6.07;2.50;;;17.60;65.80;;;;;;5050804;28;20029;-83
2021/11/08 03:16:25;;;;;;;5.65;2.22;;;17.60;65.70;;;;;;5049080;28;20021;-83
2021/11/08 03:18:42;;;;;;;7.28;3.08;;;17.60;65.70;;;;;;5052129;28;20033;-83
2021/11/08 03:21:17;;;;;;;6.40;2.03;;;17.60;65.70;;;;;;5048950;28;20139;-83
2021/11/08 03:23:44;;;;;;;5.05;2.42;;;17.60;65.60;;;;;;5050194;28;20021;-83
2021/11/08 03:27:02;;;;;;;7.25;2.28;;;17.60;65.70;;;;;;5050362;28;20049;-83
2021/11/08 03:28:57;;;;;;;5.55;2.30;;;17.60;65.60;;;;;;5053823;28;20054;-83
2021/11/08 03:31:23;;;;;;;9.55;3.17;;;17.60;65.50;;;;;;5050648;28;20056;-83
2021/11/08 03:33:49;;;;;;;7.18;2.22;;;17.60;65.50;;;;;;5049761;28;20074;-82
2021/11/08 03:36:16;;;;;;;5.45;2.22;;;17.60;65.50;;;;;;5050141;28;20025;-83
2021/11/08 03:38:41;;;;;;;7.05;2.45;;;17.60;65.50;;;;;;5050036;28;20432;-83
2021/11/08 03:41:08;;;;;;;4.72;1.85;;;17.60;65.50;;;;;;5050352;28;20096;-82
2021/11/08 03:43:35;;;;;;;7.05;2.55;;;17.60;65.40;;;;;;5029930;28;20104;-83
2021/11/08 03:46:02;;;;;;;6.07;2.10;;;17.70;65.40;;;;;;5030084;28;20120;-82
2021/11/08 03:48:28;;;;;;;6.68;2.13;;;17.60;65.30;;;;;;5029784;28;20485;-83
2021/11/08 03:50:54;;;;;;;7.75;2.30;;;17.60;65.30;;;;;;5030524;28;20033;-83
2021/11/08 03:53:21;;;;;;;8.23;2.40;;;17.60;65.30;;;;;;5030067;28;20033;-82
2021/11/08 03:55:47;;;;;;;6.40;2.30;;;17.60;65.20;;;;;;5029489;28;20351;-82
2021/11/08 03:58:14;;;;;;;4.55;1.85;;;17.70;65.30;;;;;;5029852;28;20026;-82
2021/11/08 04:00:43;;;;;;;6.35;2.33;;;17.70;65.20;;;;;;5029801;28;20418;-83
2021/11/08 04:03:10;;;;;;;7.72;2.17;;;17.60;65.10;;;;;;5029469;28;20032;-83
2021/11/08 04:05:38;;;;;;;5.10;1.98;;;17.70;65.20;;;;;;5029816;28;20380;-82
2021/11/08 04:08:09;;;;;;;4.47;1.70;;;17.70;65.20;;;;;;5030021;28;20024;-82
2021/11/08 04:10:36;;;;;;;5.22;1.80;;;17.70;65.10;;;;;;5028092;28;20025;-82
2021/11/08 04:13:05;;;;;;;5.68;2.35;;;17.70;65.10;;;;;;5029776;28;20477;-82
2021/11/08 04:15:38;;;;;;;7.63;2.63;;;17.70;65.10;;;;;;5029604;28;20033;-83
2021/11/08 04:18:19;;;;;;;5.68;1.80;;;17.70;65.00;;;;;;5029717;28;20018;-82
2021/11/08 04:20:46;;;;;;;6.68;2.20;;;17.70;65.00;;;;;;5029491;28;20450;-82
2021/11/08 04:23:14;;;;;;;6.30;2.25;;;17.70;64.90;;;;;;5028138;28;20431;-82
2021/11/08 04:25:41;;;;;;;5.93;2.30;;;17.70;64.90;;;;;;5029399;28;20030;-82
2021/11/08 04:28:06;;;;;;;7.10;2.30;;;17.70;64.90;;;;;;5029384;28;20021;-82
2021/11/08 04:30:34;;;;;;;6.70;2.33;;;17.70;64.90;;;;;;5029313;28;20074;-82
2021/11/08 04:48:54;;;;;;;6.63;1.95;;;17.70;64.70;;;;;;5029111;28;20530;-82
2021/11/08 05:23:47;;;;;;;6.85;2.22;;;17.70;65.00;;;;;;5028640;28;20093;-83
2021/11/08 05:31:36;;;;;;;7.60;2.50;;;17.70;64.20;;;;;;5028451;28;20040;-82
2021/11/08 05:34:02;;;;;;;7.00;2.38;;;17.70;64.20;;;;;;5028570;28;20116;-83
2021/11/08 05:36:28;;;;;;;5.40;1.92;;;17.70;64.80;;;;;;5028226;28;20062;-83
2021/11/08 05:38:54;;;;;;;7.80;2.67;;;17.80;64.20;;;;;;5028785;28;20029;-82
2021/11/08 05:41:19;;;;;;;6.63;2.20;;;17.70;64.00;;;;;;5028644;28;20026;-83
2021/11/08 05:43:45;;;;;;;5.93;2.25;;;17.70;64.00;;;;;;5046988;28;20021;-82
2021/11/08 05:46:11;;;;;;;5.35;2.20;;;17.80;64.10;;;;;;5048235;28;20063;-82
2021/11/08 05:48:37;;;;;;;5.18;2.22;;;17.70;64.00;;;;;;5048019;28;20098;-82
2021/11/08 05:51:03;;;;;;;5.47;2.05;;;17.70;64.00;;;;;;5047097;28;20457;-82
2021/11/08 05:53:29;;;;;;;6.85;2.60;;;17.70;64.10;;;;;;5047615;28;20045;-82
2021/11/08 05:56:15;;;;;;;7.00;2.55;;;17.80;64.10;;;;;;5048597;28;20358;-82
2021/11/08 06:50:07;;;;;;;5.80;2.40;;;18.20;64.00;;;;;;5050707;28;20047;-82
2021/11/08 06:52:34;;;;;;;4.85;2.08;;;18.20;64.00;;;;;;5049417;28;20366;-82
2021/11/08 06:55:05;;;;;;;12.45;2.53;;;18.30;63.90;;;;;;5050421;28;20469;-83
2021/11/08 06:57:32;;;;;;;10.80;2.45;;;18.30;64.20;;;;;;5029454;28;20053;-87
2021/11/08 06:59:58;;;;;;;6.38;2.03;;;18.30;64.30;;;;;;5031073;28;20031;-85
2021/11/08 07:02:25;;;;;;;7.47;2.50;;;18.30;64.20;;;;;;5049062;28;20025;-85
2021/11/08 07:04:52;;;;;;;8.98;1.92;;;18.30;64.30;;;;;;5049818;28;20048;-83
2021/11/08 07:07:18;;;;;;;10.43;2.55;;;18.30;64.30;;;;;;5049614;28;20040;-83
2021/11/08 07:09:44;;;;;;;5.80;2.00;;;18.40;64.50;;;;;;5045562;28;20029;-84
2021/11/08 07:12:11;;;;;;;6.32;2.40;;;18.40;64.30;;;;;;5030585;28;20439;-81
2021/11/08 07:14:37;;;;;;;5.43;2.20;;;18.40;64.30;;;;;;5030206;28;20065;-79
2021/11/08 07:17:04;;;;;;;6.80;1.85;;;18.40;64.30;;;;;;5030754;28;20021;-82
2021/11/08 07:19:30;;;;;;;5.38;1.70;;;18.40;64.30;;;;;;5034576;28;20029;-85
2021/11/08 07:21:56;;;;;;;6.10;2.65;;;18.40;64.20;;;;;;5050636;28;20110;-81
2021/11/08 07:24:21;;;;;;;5.65;2.60;;;18.40;64.30;;;;;;5050319;28;20496;-84
2021/11/08 07:26:47;;;;;;;5.68;1.88;;;18.40;64.20;;;;;;5050081;28;20025;-81
2021/11/08 07:29:14;;;;;;;5.63;1.92;;;18.40;64.20;;;;;;5050175;28;20025;-80
2021/11/08 07:31:41;;;;;;;7.20;2.15;;;18.30;64.10;;;;;;5048912;28;20025;-81
2021/11/08 07:34:07;;;;;;;5.50;2.47;;;18.40;64.20;;;;;;5049079;28;20107;-82
2021/11/08 07:36:33;;;;;;;7.55;2.50;;;18.30;64.00;;;;;;5050045;28;20017;-81
2021/11/08 07:38:59;;;;;;;6.88;2.50;;;18.30;63.90;;;;;;5050335;28;20029;-80
2021/11/08 07:41:24;;;;;;;6.45;2.55;;;18.30;63.80;;;;;;5050300;28;20066;-80
2021/11/08 07:43:50;;;;;;;7.28;2.40;;;18.30;63.70;;;;;;5049970;28;20029;-82
2021/11/08 07:46:17;;;;;;;7.47;2.58;;;18.30;63.70;;;;;;5050137;28;20335;-80
2021/11/08 07:48:44;;;;;;;7.10;2.30;;;18.30;63.60;;;;;;5048713;28;20506;-80
2021/11/08 07:51:15;;;;;;;7.40;2.40;;;18.30;63.50;;;;;;5042752;28;20026;-81
2021/11/08 07:53:42;;;;;;;7.07;2.38;;;18.30;63.40;;;;;;5049448;28;20036;-81
2021/11/08 07:56:09;;;;;;;5.47;2.53;;;18.30;63.30;;;;;;5048174;28;20025;-83
2021/11/08 07:58:36;;;;;;;7.40;2.83;;;18.30;63.30;;;;;;5046393;28;20062;-82
2021/11/08 08:01:02;;;;;;;5.00;2.08;;;18.20;63.20;;;;;;5049304;28;20438;-81
2021/11/08 08:03:30;;;;;;;6.47;2.33;;;18.30;63.30;;;;;;5048261;28;20108;-82
2021/11/08 08:05:58;;;;;;;7.22;2.00;;;18.20;63.20;;;;;;5037886;28;20104;-82
2021/11/08 08:08:24;;;;;;;11.65;2.60;;;18.20;63.20;;;;;;5033265;28;20017;-81
2021/11/08 08:10:51;;;;;;;12.65;3.53;;;18.20;63.20;;;;;;5049164;28;20031;-83
2021/11/08 08:13:22;;;;;;;13.70;2.50;;;18.20;63.10;;;;;;5044286;28;20521;-82
2021/11/08 08:15:48;;;;;;;13.70;2.78;;;18.20;63.10;;;;;;5029615;28;20028;-82
2021/11/08 08:18:14;;;;;;;14.32;2.50;;;18.10;62.90;;;;;;5029651;28;20021;-81
2021/11/08 08:20:40;;;;;;;4.80;2.25;;;18.10;62.90;;;;;;5029635;28;20021;-82
2021/11/08 08:23:06;;;;;;;6.55;2.55;;;18.10;62.90;;;;;;5029532;28;20025;-81
2021/11/08 08:25:32;;;;;;;8.82;2.65;;;18.10;62.80;;;;;;5029110;28;20109;-82
2021/11/08 08:27:58;;;;;;;9.10;3.25;;;18.10;62.90;;;;;;5029597;28;20029;-82
2021/11/08 08:30:25;;;;;;;7.05;2.70;;;18.10;62.80;;;;;;5036805;28;20017;-84
2021/11/08 08:32:51;;;;;;;5.80;2.47;;;18.10;62.80;;;;;;5034137;28;20087;-84
2021/11/08 08:35:17;;;;;;;9.13;3.00;;;18.10;62.80;;;;;;5029686;28;20398;-88
2021/11/08 08:37:44;;;;;;;7.30;2.58;;;18.10;62.70;;;;;;5049131;28;20069;-87
2021/11/08 08:40:11;;;;;;;5.47;2.40;;;18.10;62.70;;;;;;5042450;28;20029;-82
2021/11/08 08:42:36;;;;;;;7.68;2.75;;;18.10;62.70;;;;;;5035821;28;20028;-82
2021/11/08 08:45:04;;;;;;;9.15;3.28;;;18.10;62.60;;;;;;5048006;28;20023;-86
2021/11/08 08:47:31;;;;;;;7.00;2.67;;;18.10;62.60;;;;;;5047353;28;20089;-85
2021/11/08 08:49:56;;;;;;;10.25;2.92;;;18.10;62.60;;;;;;5031355;28;20022;-87
2021/11/08 08:52:22;;;;;;;6.43;2.70;;;18.10;62.60;;;;;;5029271;28;20031;-86
2021/11/08 08:54:49;;;;;;;7.40;3.22;;;18.00;62.50;;;;;;5028961;28;20392;-87
2021/11/08 08:57:15;;;;;;;8.02;2.63;;;18.10;62.50;;;;;;5044691;28;20032;-85
2021/11/08 08:59:42;;;;;;;7.38;3.05;;;18.10;62.50;;;;;;5048948;28;20051;-84
2021/11/08 09:02:09;;;;;;;7.80;3.03;;;18.10;62.50;;;;;;5030760;28;20078;-87
2021/11/08 09:04:37;;;;;;;7.65;2.83;;;18.10;62.50;;;;;;5027975;28;20032;-85
2021/11/08 09:07:04;;;;;;;7.90;2.45;;;18.00;62.40;;;;;;5028762;28;20405;-84
2021/11/08 09:09:30;;;;;;;9.95;2.80;;;18.00;62.40;;;;;;5027465;28;20059;-84
2021/11/08 09:11:56;;;;;;;7.07;2.70;;;18.00;62.30;;;;;;5027953;28;20029;-81
2021/11/08 09:14:22;;;;;;;10.30;3.55;;;18.00;62.30;;;;;;5029153;28;20153;-84
2021/11/08 09:16:47;;;;;;;9.23;2.80;;;18.00;62.40;;;;;;5027420;28;20121;-82
2021/11/08 09:19:13;;;;;;;7.60;3.05;;;18.00;62.40;;;;;;5028745;28;20396;-82
2021/11/08 09:21:40;;;;;;;6.97;2.60;;;18.00;62.40;;;;;;5027404;28;20021;-82
2021/11/08 09:24:06;;;;;;;6.35;2.40;;;18.00;62.40;;;;;;5028900;28;20385;-82
2021/11/08 09:26:34;;;;;;;8.32;2.63;;;18.00;62.30;;;;;;5027012;28;20511;-81
2021/11/08 09:29:01;;;;;;;8.25;2.92;;;18.00;62.30;;;;;;5043393;28;20404;-82
2021/11/08 09:31:27;;;;;;;7.18;3.10;;;18.00;62.30;;;;;;5047334;28;20076;-84
2021/11/08 09:33:58;;;;;;;11.13;3.55;;;18.00;62.30;;;;;;5047259;28;20037;-83
2021/11/08 09:36:24;;;;;;;10.68;3.20;;;18.00;62.30;;;;;;5048467;28;20146;-83
2021/11/08 09:38:58;;;;;;;13.68;3.20;;;18.00;62.20;;;;;;5028726;28;20063;-83
2021/11/08 09:41:35;;;;;;;9.88;3.22;;;18.00;62.20;;;;;;5040375;28;20017;-82
2021/11/08 09:44:04;;;;;;;8.57;3.58;;;18.00;62.20;;;;;;5048580;28;20035;-84
2021/11/08 09:46:31;;;;;;;7.18;3.10;;;18.00;62.20;;;;;;5047925;28;20033;-83
2021/11/08 09:49:01;;;;;;;7.85;3.05;;;18.00;62.20;;;;;;5046730;28;20029;-83
2021/11/08 09:51:30;;;;;;;9.75;3.60;;;18.00;62.10;;;;;;5048298;28;20023;-82
2021/11/08 09:53:56;;;;;;;9.73;3.47;;;18.10;62.20;;;;;;5047600;28;20471;-83
2021/11/08 09:56:22;;;;;;;9.25;3.22;;;18.10;62.20;;;;;;5048223;28;20025;-85
2021/11/08 09:58:48;;;;;;;7.82;3.17;;;18.00;62.00;;;;;;5048043;28;20029;-85
2021/11/08 10:01:15;;;;;;;7.28;2.75;;;18.10;62.10;;;;;;5047845;28;20069;-83
2021/11/08 10:03:44;;;;;;;8.20;3.20;;;18.10;62.10;;;;;;5030843;28;20183;-86
2021/11/08 10:06:10;;;;;;;6.85;2.78;;;18.10;62.10;;;;;;5028117;28;20025;-85
2021/11/08 10:08:39;;;;;;;7.20;3.45;;;18.10;62.10;;;;;;5028081;28;20032;-86
2021/11/08 10:11:08;;;;;;;9.98;3.05;;;18.10;62.10;;;;;;5028235;28;20018;-84
2021/11/08 10:13:36;;;;;;;6.10;2.08;;;18.10;62.10;;;;;;5039077;28;20033;-83
2021/11/08 10:16:20;;;;;;;8.15;2.72;;;18.10;62.00;;;;;;5046358;28;20504;-82
2021/11/08 10:18:53;;;;;;;10.10;3.28;;;18.10;61.90;;;;;;5046220;28;20033;-82
2021/11/08 10:21:26;;;;;;;8.98;2.92;;;18.10;62.90;;;;;;5026881;28;20053;-83
2021/11/08 10:23:54;;;;;;;8.70;3.17;;;18.20;62.00;;;;;;5027020;28;20061;-84
2021/11/08 10:26:28;;;;;;;10.45;3.65;;;18.20;61.90;;;;;;5046939;28;20033;-83
2021/11/08 10:29:01;;;;;;;8.95;3.40;;;18.20;61.90;;;;;;5048035;28;20078;-83
2021/11/08 10:31:31;;;;;;;9.45;3.05;;;18.20;61.90;;;;;;5047863;28;20017;-85
2021/11/08 10:34:01;;;;;;;9.00;3.33;;;18.20;61.80;;;;;;5047541;28;20037;-83
2021/11/08 10:36:27;;;;;;;6.35;3.15;;;18.30;61.70;;;;;;5047544;28;20065;-84
2021/11/08 10:38:55;;;;;;;6.10;2.50;;;18.30;61.70;;;;;;5043876;28;20029;-84
2021/11/08 10:41:27;;;;;;;7.40;3.42;;;18.30;61.70;;;;;;5046285;28;20027;-86
2021/11/08 10:44:10;;;;;;;5.88;2.70;;;18.30;61.60;;;;;;5047859;28;20032;-84
2021/11/08 10:46:39;;;;;;;7.28;2.92;;;18.30;61.60;;;;;;5045866;28;20548;-85
2021/11/08 10:49:20;;;;;;;6.97;3.13;;;18.30;61.60;;;;;;5046009;28;20551;-84
2021/11/08 10:51:49;;;;;;;6.32;3.13;;;18.30;61.50;;;;;;5045457;28;20017;-84
2021/11/08 10:54:24;;;;;;;7.72;2.85;;;18.40;61.50;;;;;;5047205;28;20132;-83
2021/11/08 10:56:59;;;;;;;9.73;3.08;;;18.40;61.50;;;;;;5047129;28;20040;-83
2021/11/08 10:59:34;;;;;;;7.53;3.13;;;18.50;61.30;;;;;;5047536;28;20401;-84
2021/11/08 11:02:05;;;;;;;7.28;3.20;;;18.50;61.30;;;;;;5047481;28;20014;-83
2021/11/08 11:04:40;;;;;;;7.60;3.10;;;18.60;61.20;;;;;;5047260;28;20037;-86
2021/11/08 11:07:06;;;;;;;8.55;3.50;;;18.60;61.00;;;;;;5050363;28;20017;-84
2021/11/08 11:09:35;;;;;;;7.00;2.63;;;18.70;61.10;;;;;;5033338;28;20136;-84
2021/11/08 11:12:07;;;;;;;8.98;2.75;;;18.70;60.90;;;;;;5031251;28;20105;-84
2021/11/08 11:14:39;;;;;;;6.25;2.63;;;18.80;60.80;;;;;;5029111;28;20061;-84
2021/11/08 11:17:26;;;;;;;6.78;2.58;;;18.80;60.60;;;;;;5030965;28;20429;-84
2021/11/08 11:20:13;;;;;;;8.90;2.80;;;18.90;60.40;;;;;;5030977;28;20030;-84
2021/11/08 11:22:44;;;;;;;7.05;3.00;;;19.00;60.10;;;;;;5030214;28;20515;-84
2021/11/08 11:25:11;;;;;;;7.95;3.13;;;19.10;60.00;;;;;;5030556;28;20104;-85
2021/11/08 11:27:47;;;;;;;8.07;3.15;;;19.30;59.80;;;;;;5030170;28;20026;-82
2021/11/08 11:30:16;;;;;;;;;;;19.40;59.40;;;;;;5030747;28;20028;-82
2021/11/08 11:32:43;;;;;;;6.10;2.85;;;19.20;59.50;;;;;;5030299;28;19916;-82
2021/11/08 11:35:16;;;;;;;6.30;2.78;;;19.10;59.60;;;;;;5036183;28;20083;-82
2021/11/08 11:38:11;;;;;;;7.85;2.92;;;19.50;59.40;;;;;;5039980;28;20022;-82
2021/11/08 11:40:45;;;;;;;6.80;2.85;;;19.50;59.50;;;;;;5030073;28;20462;-82
2021/11/08 11:43:14;;;;;;;27.17;7.07;;;19.80;58.70;;;;;;5030091;28;20552;-82
2021/11/08 11:45:52;;;;;;;32.15;8.20;;;20.20;59.50;;;;;;5029746;28;20136;-81
2021/11/08 11:48:22;;;;;;;25.35;8.18;;;21.00;56.60;;;;;;5030103;28;20022;-82
2021/11/08 11:50:48;;;;;;;20.30;6.00;;;23.00;55.90;;;;;;5029780;28;20570;-82
2021/11/08 11:53:14;;;;;;;19.77;6.45;;;21.70;54.90;;;;;;5029811;28;20054;-82
2021/11/08 11:55:40;;;;;;;20.15;5.57;;;20.90;56.60;;;;;;5029889;28;20108;-82
2021/11/08 11:58:06;;;;;;;13.65;5.40;;;21.40;56.40;;;;;;5030060;28;20060;-82
2021/11/08 12:00:39;;;;;;;20.48;6.13;;;20.80;57.10;;;;;;5029704;28;20032;-85
2021/11/08 12:03:05;;;;;;;15.73;4.40;;;22.30;57.40;;;;;;5028667;28;20470;-84
2021/11/08 12:05:33;;;;;;;13.18;4.18;;;24.70;52.80;;;;;;5029613;28;20516;-83
2021/11/08 12:08:02;;;;;;;9.77;3.42;;;24.60;49.90;;;;;;5030142;28;20497;-81
2021/11/08 12:10:28;;;;;;;11.60;3.60;;;22.90;52.40;;;;;;5049147;28;20017;-84
2021/11/08 12:12:54;;;;;;;14.98;4.00;;;22.40;54.80;;;;;;5049907;28;20033;-83
2021/11/08 12:15:29;;;;;;;7.90;3.67;;;22.80;54.90;;;;;;5049654;28;20060;-84
2021/11/08 12:18:02;;;;;;;7.47;3.25;;;23.90;53.90;;;;;;5047826;28;20036;-84
2021/11/08 12:20:28;;;;;;;10.52;3.15;;;22.70;53.30;;;;;;5034225;28;20501;-83
2021/11/08 12:22:54;;;;;;;8.98;3.30;;;21.90;55.10;;;;;;5029494;28;20037;-83
2021/11/08 12:25:24;;;;;;;9.85;3.17;;;21.40;56.30;;;;;;5029516;28;20029;-83
2021/11/08 12:28:06;;;;;;;7.25;2.90;;;21.00;57.10;;;;;;5029322;28;20033;-84
2021/11/08 12:30:34;;;;;;;9.80;3.08;;;20.80;57.70;;;;;;5027670;28;20029;-83
2021/11/08 12:33:03;;;;;;;8.15;2.95;;;21.00;57.80;;;;;;5027875;28;20033;-83
2021/11/08 12:35:38;;;;;;;7.57;2.83;;;20.90;57.90;;;;;;5027436;28;20035;-84
2021/11/08 12:38:28;;;;;;;10.55;3.03;;;20.90;58.00;;;;;;5041615;28;20031;-82
2021/11/08 12:41:14;;;;;;;9.75;3.40;;;21.60;57.80;;;;;;5049650;28;20039;-83
2021/11/08 12:43:50;;;;;;;9.13;3.08;;;23.90;54.20;;;;;;5048673;28;20505;-83
2021/11/08 12:46:18;;;;;;;7.35;2.92;;;25.00;52.00;;;;;;5049001;28;20033;-83
2021/11/08 12:48:45;;;;;;;8.30;2.70;;;25.50;50.60;;;;;;5048688;28;20064;-83
2021/11/08 12:51:13;;;;;;;8.73;3.25;;;25.80;50.00;;;;;;5048851;28;20025;-82
2021/11/08 12:54:01;;;;;;;8.45;2.83;;;26.10;49.50;;;;;;5048507;28;20033;-83
2021/11/08 12:56:30;;;;;;;8.20;3.05;;;25.10;49.70;;;;;;5048796;28;20050;-85
2021/11/08 12:58:58;;;;;;;7.57;2.95;;;25.30;50.00;;;;;;5049244;28;20118;-84
2021/11/08 13:01:40;;;;;;;6.95;2.38;;;24.30;50.90;;;;;;5049268;28;20024;-85
2021/11/08 13:04:08;;;;;;;7.97;2.97;;;23.50;52.30;;;;;;5034938;28;20022;-83
2021/11/08 13:06:35;;;;;;;5.38;2.30;;;23.00;53.30;;;;;;5027246;28;20025;-84
2021/11/08 13:09:09;;;;;;;9.88;2.50;;;22.70;54.00;;;;;;5029033;28;20423;-83
2021/11/08 13:11:39;;;;;;;7.38;2.90;;;22.30;54.60;;;;;;5028571;28;20109;-84
2021/11/08 13:14:05;;;;;;;6.78;2.47;;;22.00;55.20;;;;;;5028664;28;20579;-83
2021/11/08 13:16:43;;;;;;;7.95;3.10;;;21.70;55.80;;;;;;5028521;28;20113;-83
2021/11/08 13:19:12;;;;;;;6.55;2.60;;;21.60;56.10;;;;;;5028576;28;20017;-83
2021/11/08 13:21:38;;;;;;;8.30;3.30;;;21.50;56.50;;;;;;5028595;28;20029;-83
2021/11/08 13:24:06;;;;;;;5.75;2.33;;;21.30;56.80;;;;;;5028802;28;20036;-83
2021/11/08 13:26:33;;;;;;;7.50;2.72;;;21.20;56.90;;;;;;5027204;28;20052;-83
2021/11/08 13:29:00;;;;;;;8.20;2.55;;;21.10;57.20;;;;;;5027724;28;20030;-83
2021/11/08 13:31:27;;;;;;;7.10;2.45;;;21.00;57.40;;;;;;5028731;28;20028;-83
2021/11/08 13:33:54;;;;;;;6.38;2.17;;;20.90;57.60;;;;;;5044526;28;20076;-83
2021/11/08 13:36:21;;;;;;;6.97;2.92;;;20.80;57.80;;;;;;5048371;28;20014;-83
2021/11/08 13:38:53;;;;;;;6.93;2.60;;;20.80;58.00;;;;;;5037389;28;20376;-82
2021/11/08 13:41:32;;;;;;;6.75;2.17;;;20.70;58.20;;;;;;5048591;28;20025;-82
2021/11/08 13:44:09;;;;;;;6.38;2.63;;;20.60;58.20;;;;;;5047141;28;20403;-82
2021/11/08 13:46:46;;;;;;;8.35;2.78;;;20.50;58.40;;;;;;5048045;28;20124;-82
2021/11/08 13:49:15;;;;;;;6.18;2.10;;;20.40;58.60;;;;;;5048207;28;20096;-83
2021/11/08 13:51:44;;;;;;;8.25;2.75;;;20.30;58.80;;;;;;5040225;28;20037;-83
2021/11/08 13:54:30;;;;;;;7.75;2.70;;;20.30;59.00;;;;;;5027028;28;20034;-83
2021/11/08 13:57:00;;;;;;;7.00;2.60;;;20.20;59.20;;;;;;5028569;28;20026;-83
2021/11/08 13:59:33;;;;;;;6.35;2.67;;;20.10;59.30;;;;;;5040645;28;20033;-83
2021/11/08 14:02:00;;;;;;;5.40;2.42;;;20.00;59.50;;;;;;5048012;28;20032;-82
2021/11/08 14:04:34;;;;;;;5.60;2.10;;;20.00;59.70;;;;;;5048534;28;20096;-83
2021/11/08 14:07:01;;;;;;;6.13;2.17;;;19.90;59.70;;;;;;5042691;28;20497;-83
2021/11/08 14:09:27;;;;;;;6.20;1.85;;;19.90;59.90;;;;;;5028224;28;20032;-83
2021/11/08 14:11:56;;;;;;;6.30;2.55;;;19.80;60.00;;;;;;5028448;28;20033;-81
2021/11/08 14:14:27;;;;;;;5.35;2.13;;;19.80;60.00;;;;;;5039374;28;20124;-82
2021/11/08 14:17:06;;;;;;;7.97;2.88;;;19.70;60.10;;;;;;5048273;28;20021;-82
2021/11/08 14:19:31;;;;;;;7.10;2.40;;;19.60;60.30;;;;;;5047501;28;20561;-82
2021/11/08 14:21:57;;;;;;;5.97;1.95;;;19.60;60.40;;;;;;5043962;28;20101;-82
2021/11/08 14:24:24;;;;;;;4.78;2.00;;;19.60;60.50;;;;;;5028270;28;20108;-82
2021/11/08 14:26:56;;;;;;;8.02;2.70;;;19.50;60.60;;;;;;5027558;28;20025;-84
2021/11/08 14:29:27;;;;;;;5.07;1.98;;;19.50;60.60;;;;;;5033560;28;20029;-84
2021/11/08 14:32:04;;;;;;;6.68;2.25;;;19.50;60.70;;;;;;5028311;28;20025;-85
2021/11/08 14:34:35;;;;;;;5.05;1.80;;;19.40;60.50;;;;;;5027922;28;20090;-84
2021/11/08 14:37:15;;;;;;;7.22;2.05;;;19.40;60.70;;;;;;5032307;28;20021;-84
2021/11/08 14:39:48;;;;;;;4.85;2.30;;;19.30;60.70;;;;;;5047567;28;20551;-84
2021/11/08 14:42:16;;;;;;;4.90;2.20;;;19.40;60.90;;;;;;5049291;28;20035;-84
2021/11/08 14:44:53;;;;;;;8.00;1.73;;;19.30;61.00;;;;;;5050554;28;20394;-84
2021/11/08 14:47:22;;;;;;;5.32;2.30;;;19.30;61.00;;;;;;5050133;28;20040;-83